sensor_id;sensor_type;location;lat;lon;timestamp;P1;durP1;ratioP1;P2;durP2;ratioP2
6259;SDS011;3163;51.516;4.000;2022-10-16T00:00:18;0.57;;;0.57;;
6259;SDS011;3163;51.516;4.000;2022-10-16T00:02:44;0.60;;;0.60;;
6259;SDS011;3163;51.516;4.000;2022-10-16T00:05:10;0.40;;;0.40;;
6259;SDS011;3163;51.516;4.000;2022-10-16T00:07:36;1.60;;;0.83;;
6259;SDS011;3163;51.516;4.000;2022-10-16T00:10:02;0.40;;;0.40;;
6259;SDS011;3163;51.516;4.000;2022-10-16T00:12:28;1.17;;;0.70;;
6259;SDS011;3163;51.516;4.000;2022-10-16T00:14:54;0.60;;;0.60;;
6259;SDS011;3163;51.516;4.000;2022-10-16T00:17:20;0.80;;;0.70;;
6259;SDS011;3163;51.516;4.000;2022-10-16T00:19:46;0.73;;;0.70;;
6259;SDS011;3163;51.516;4.000;2022-10-16T00:22:12;0.47;;;0.47;;
6259;SDS011;3163;51.516;4.000;2022-10-16T00:24:38;1.20;;;0.70;;
6259;SDS011;3163;51.516;4.000;2022-10-16T00:27:04;0.50;;;0.50;;
6259;SDS011;3163;51.516;4.000;2022-10-16T00:29:30;0.60;;;0.60;;
6259;SDS011;3163;51.516;4.000;2022-10-16T00:31:56;1.70;;;0.50;;
6259;SDS011;3163;51.516;4.000;2022-10-16T00:34:22;0.60;;;0.60;;
6259;SDS011;3163;51.516;4.000;2022-10-16T00:36:47;0.80;;;0.70;;
6259;SDS011;3163;51.516;4.000;2022-10-16T00:39:13;0.60;;;0.50;;
6259;SDS011;3163;51.516;4.000;2022-10-16T00:41:39;0.80;;;0.60;;
6259;SDS011;3163;51.516;4.000;2022-10-16T00:44:41;0.93;;;0.60;;
6259;SDS011;3163;51.516;4.000;2022-10-16T00:46:51;0.40;;;0.40;;
6259;SDS011;3163;51.516;4.000;2022-10-16T00:49:18;0.90;;;0.70;;
6259;SDS011;3163;51.516;4.000;2022-10-16T00:51:45;0.57;;;0.47;;
6259;SDS011;3163;51.516;4.000;2022-10-16T00:54:23;1.03;;;0.90;;
6259;SDS011;3163;51.516;4.000;2022-10-16T00:56:50;1.57;;;0.80;;
6259;SDS011;3163;51.516;4.000;2022-10-16T00:59:20;1.03;;;0.60;;
6259;SDS011;3163;51.516;4.000;2022-10-16T01:01:47;0.33;;;0.30;;
6259;SDS011;3163;51.516;4.000;2022-10-16T01:04:13;1.00;;;0.60;;
6259;SDS011;3163;51.516;4.000;2022-10-16T01:06:47;3.30;;;0.60;;
6259;SDS011;3163;51.516;4.000;2022-10-16T01:09:17;0.60;;;0.60;;
6259;SDS011;3163;51.516;4.000;2022-10-16T01:12:01;1.33;;;0.43;;
6259;SDS011;3163;51.516;4.000;2022-10-16T01:17:10;0.60;;;0.60;;
6259;SDS011;3163;51.516;4.000;2022-10-16T01:22:06;0.83;;;0.60;;
6259;SDS011;3163;51.516;4.000;2022-10-16T01:24:38;1.47;;;0.50;;
6259;SDS011;3163;51.516;4.000;2022-10-16T01:27:09;0.77;;;0.60;;
6259;SDS011;3163;51.516;4.000;2022-10-16T01:32:05;0.50;;;0.50;;
6259;SDS011;3163;51.516;4.000;2022-10-16T01:34:38;0.40;;;0.40;;
6259;SDS011;3163;51.516;4.000;2022-10-16T01:37:10;0.40;;;0.40;;
6259;SDS011;3163;51.516;4.000;2022-10-16T01:39:38;1.13;;;0.63;;
6259;SDS011;3163;51.516;4.000;2022-10-16T01:42:09;0.57;;;0.57;;
6259;SDS011;3163;51.516;4.000;2022-10-16T01:44:37;0.40;;;0.40;;
6259;SDS011;3163;51.516;4.000;2022-10-16T01:47:04;3.60;;;0.70;;
6259;SDS011;3163;51.516;4.000;2022-10-16T01:49:31;2.53;;;0.60;;
6259;SDS011;3163;51.516;4.000;2022-10-16T01:51:59;0.50;;;0.50;;
6259;SDS011;3163;51.516;4.000;2022-10-16T01:54:26;0.30;;;0.30;;
6259;SDS011;3163;51.516;4.000;2022-10-16T01:56:53;1.00;;;0.50;;
6259;SDS011;3163;51.516;4.000;2022-10-16T01:59:21;1.05;;;0.60;;
6259;SDS011;3163;51.516;4.000;2022-10-16T02:01:50;2.57;;;0.60;;
6259;SDS011;3163;51.516;4.000;2022-10-16T02:04:31;1.53;;;0.83;;
6259;SDS011;3163;51.516;4.000;2022-10-16T02:06:58;0.75;;;0.60;;
6259;SDS011;3163;51.516;4.000;2022-10-16T02:09:24;0.67;;;0.50;;
6259;SDS011;3163;51.516;4.000;2022-10-16T02:11:51;1.10;;;0.70;;
6259;SDS011;3163;51.516;4.000;2022-10-16T02:14:18;0.50;;;0.50;;
6259;SDS011;3163;51.516;4.000;2022-10-16T02:16:45;0.60;;;0.60;;
6259;SDS011;3163;51.516;4.000;2022-10-16T02:19:12;0.83;;;0.60;;
6259;SDS011;3163;51.516;4.000;2022-10-16T02:26:50;0.60;;;0.60;;
6259;SDS011;3163;51.516;4.000;2022-10-16T02:29:19;1.17;;;0.50;;
6259;SDS011;3163;51.516;4.000;2022-10-16T02:31:46;2.00;;;0.50;;
6259;SDS011;3163;51.516;4.000;2022-10-16T02:34:14;2.83;;;0.60;;
6259;SDS011;3163;51.516;4.000;2022-10-16T02:36:41;1.33;;;0.63;;
6259;SDS011;3163;51.516;4.000;2022-10-16T02:39:07;0.60;;;0.60;;
6259;SDS011;3163;51.516;4.000;2022-10-16T02:41:33;0.73;;;0.47;;
6259;SDS011;3163;51.516;4.000;2022-10-16T02:43:59;0.63;;;0.63;;
6259;SDS011;3163;51.516;4.000;2022-10-16T02:46:25;0.50;;;0.50;;
6259;SDS011;3163;51.516;4.000;2022-10-16T02:48:51;0.60;;;0.60;;
6259;SDS011;3163;51.516;4.000;2022-10-16T02:51:17;0.47;;;0.40;;
6259;SDS011;3163;51.516;4.000;2022-10-16T02:53:43;0.60;;;0.40;;
6259;SDS011;3163;51.516;4.000;2022-10-16T02:56:09;0.53;;;0.53;;
6259;SDS011;3163;51.516;4.000;2022-10-16T02:58:35;0.40;;;0.40;;
6259;SDS011;3163;51.516;4.000;2022-10-16T03:01:01;1.60;;;0.53;;
6259;SDS011;3163;51.516;4.000;2022-10-16T03:03:27;0.50;;;0.50;;
6259;SDS011;3163;51.516;4.000;2022-10-16T03:05:53;0.60;;;0.60;;
6259;SDS011;3163;51.516;4.000;2022-10-16T03:08:19;1.00;;;0.30;;
6259;SDS011;3163;51.516;4.000;2022-10-16T03:10:48;0.57;;;0.43;;
6259;SDS011;3163;51.516;4.000;2022-10-16T03:13:14;0.30;;;0.30;;
6259;SDS011;3163;51.516;4.000;2022-10-16T03:15:40;0.30;;;0.30;;
6259;SDS011;3163;51.516;4.000;2022-10-16T03:18:06;1.07;;;0.30;;
6259;SDS011;3163;51.516;4.000;2022-10-16T03:20:32;0.60;;;0.60;;
6259;SDS011;3163;51.516;4.000;2022-10-16T03:22:58;0.60;;;0.57;;
6259;SDS011;3163;51.516;4.000;2022-10-16T03:25:24;0.30;;;0.30;;
6259;SDS011;3163;51.516;4.000;2022-10-16T03:27:50;1.50;;;0.47;;
6259;SDS011;3163;51.516;4.000;2022-10-16T03:30:16;0.63;;;0.63;;
6259;SDS011;3163;51.516;4.000;2022-10-16T03:32:43;1.70;;;0.70;;
6259;SDS011;3163;51.516;4.000;2022-10-16T03:35:10;0.60;;;0.57;;
6259;SDS011;3163;51.516;4.000;2022-10-16T03:37:36;1.50;;;0.50;;
6259;SDS011;3163;51.516;4.000;2022-10-16T03:40:02;0.50;;;0.50;;
6259;SDS011;3163;51.516;4.000;2022-10-16T03:42:29;0.50;;;0.43;;
6259;SDS011;3163;51.516;4.000;2022-10-16T03:44:55;0.33;;;0.33;;
6259;SDS011;3163;51.516;4.000;2022-10-16T03:47:20;0.90;;;0.50;;
6259;SDS011;3163;51.516;4.000;2022-10-16T03:49:48;0.73;;;0.50;;
6259;SDS011;3163;51.516;4.000;2022-10-16T03:52:14;0.40;;;0.40;;
6259;SDS011;3163;51.516;4.000;2022-10-16T03:54:41;0.20;;;0.20;;
6259;SDS011;3163;51.516;4.000;2022-10-16T03:57:07;1.40;;;0.40;;
6259;SDS011;3163;51.516;4.000;2022-10-16T03:59:33;1.63;;;0.60;;
6259;SDS011;3163;51.516;4.000;2022-10-16T04:01:59;0.70;;;0.50;;
6259;SDS011;3163;51.516;4.000;2022-10-16T04:04:25;0.40;;;0.40;;
6259;SDS011;3163;51.516;4.000;2022-10-16T04:06:51;0.40;;;0.40;;
6259;SDS011;3163;51.516;4.000;2022-10-16T04:09:17;0.60;;;0.57;;
6259;SDS011;3163;51.516;4.000;2022-10-16T04:11:43;1.80;;;0.50;;
6259;SDS011;3163;51.516;4.000;2022-10-16T04:14:09;0.50;;;0.50;;
6259;SDS011;3163;51.516;4.000;2022-10-16T04:16:35;0.50;;;0.50;;
6259;SDS011;3163;51.516;4.000;2022-10-16T04:19:01;0.73;;;0.60;;
6259;SDS011;3163;51.516;4.000;2022-10-16T04:21:27;0.67;;;0.50;;
6259;SDS011;3163;51.516;4.000;2022-10-16T04:23:52;0.70;;;0.70;;
6259;SDS011;3163;51.516;4.000;2022-10-16T04:26:18;1.60;;;0.40;;
6259;SDS011;3163;51.516;4.000;2022-10-16T04:28:44;0.73;;;0.60;;
6259;SDS011;3163;51.516;4.000;2022-10-16T04:31:10;2.20;;;0.57;;
6259;SDS011;3163;51.516;4.000;2022-10-16T04:33:36;0.60;;;0.50;;
6259;SDS011;3163;51.516;4.000;2022-10-16T04:36:03;0.50;;;0.50;;
6259;SDS011;3163;51.516;4.000;2022-10-16T04:38:29;1.60;;;0.40;;
6259;SDS011;3163;51.516;4.000;2022-10-16T04:40:55;0.40;;;0.40;;
6259;SDS011;3163;51.516;4.000;2022-10-16T04:43:21;1.07;;;0.40;;
6259;SDS011;3163;51.516;4.000;2022-10-16T04:45:47;0.50;;;0.30;;
6259;SDS011;3163;51.516;4.000;2022-10-16T04:48:15;0.47;;;0.47;;
6259;SDS011;3163;51.516;4.000;2022-10-16T04:50:41;0.43;;;0.40;;
6259;SDS011;3163;51.516;4.000;2022-10-16T04:53:07;0.33;;;0.33;;
6259;SDS011;3163;51.516;4.000;2022-10-16T04:55:33;2.10;;;0.60;;
6259;SDS011;3163;51.516;4.000;2022-10-16T04:57:59;2.67;;;0.60;;
6259;SDS011;3163;51.516;4.000;2022-10-16T05:00:25;0.47;;;0.40;;
6259;SDS011;3163;51.516;4.000;2022-10-16T05:02:52;1.50;;;0.50;;
6259;SDS011;3163;51.516;4.000;2022-10-16T05:05:18;1.67;;;0.60;;
6259;SDS011;3163;51.516;4.000;2022-10-16T05:07:45;2.40;;;0.70;;
6259;SDS011;3163;51.516;4.000;2022-10-16T05:10:11;0.80;;;0.50;;
6259;SDS011;3163;51.516;4.000;2022-10-16T05:12:37;1.00;;;0.50;;
6259;SDS011;3163;51.516;4.000;2022-10-16T05:15:03;0.63;;;0.60;;
6259;SDS011;3163;51.516;4.000;2022-10-16T05:17:29;0.40;;;0.40;;
6259;SDS011;3163;51.516;4.000;2022-10-16T05:19:55;0.75;;;0.50;;
6259;SDS011;3163;51.516;4.000;2022-10-16T05:22:21;1.53;;;0.50;;
6259;SDS011;3163;51.516;4.000;2022-10-16T05:24:47;0.40;;;0.40;;
6259;SDS011;3163;51.516;4.000;2022-10-16T05:27:13;0.40;;;0.40;;
6259;SDS011;3163;51.516;4.000;2022-10-16T05:29:47;0.30;;;0.30;;
6259;SDS011;3163;51.516;4.000;2022-10-16T05:32:13;0.40;;;0.40;;
6259;SDS011;3163;51.516;4.000;2022-10-16T05:34:39;0.40;;;0.40;;
6259;SDS011;3163;51.516;4.000;2022-10-16T05:37:05;0.87;;;0.50;;
6259;SDS011;3163;51.516;4.000;2022-10-16T05:39:31;0.40;;;0.40;;
6259;SDS011;3163;51.516;4.000;2022-10-16T05:41:57;0.47;;;0.40;;
6259;SDS011;3163;51.516;4.000;2022-10-16T05:44:23;0.53;;;0.40;;
6259;SDS011;3163;51.516;4.000;2022-10-16T05:46:49;0.77;;;0.77;;
6259;SDS011;3163;51.516;4.000;2022-10-16T05:49:15;0.30;;;0.30;;
6259;SDS011;3163;51.516;4.000;2022-10-16T05:51:41;1.33;;;0.60;;
6259;SDS011;3163;51.516;4.000;2022-10-16T05:54:07;2.23;;;0.57;;
6259;SDS011;3163;51.516;4.000;2022-10-16T05:56:34;0.77;;;0.50;;
6259;SDS011;3163;51.516;4.000;2022-10-16T05:58:59;1.33;;;0.60;;
6259;SDS011;3163;51.516;4.000;2022-10-16T06:01:25;0.88;;;0.55;;
6259;SDS011;3163;51.516;4.000;2022-10-16T06:03:51;0.77;;;0.50;;
6259;SDS011;3163;51.516;4.000;2022-10-16T06:06:21;0.57;;;0.30;;
6259;SDS011;3163;51.516;4.000;2022-10-16T06:08:48;1.10;;;0.47;;
6259;SDS011;3163;51.516;4.000;2022-10-16T06:11:15;0.63;;;0.53;;
6259;SDS011;3163;51.516;4.000;2022-10-16T06:13:41;0.83;;;0.50;;
6259;SDS011;3163;51.516;4.000;2022-10-16T06:16:08;0.33;;;0.33;;
6259;SDS011;3163;51.516;4.000;2022-10-16T06:18:34;0.30;;;0.30;;
6259;SDS011;3163;51.516;4.000;2022-10-16T06:21:06;0.83;;;0.33;;
6259;SDS011;3163;51.516;4.000;2022-10-16T06:23:32;2.67;;;0.50;;
6259;SDS011;3163;51.516;4.000;2022-10-16T06:26:05;2.23;;;0.70;;
6259;SDS011;3163;51.516;4.000;2022-10-16T06:28:31;0.40;;;0.40;;
6259;SDS011;3163;51.516;4.000;2022-10-16T06:31:01;1.60;;;0.57;;
6259;SDS011;3163;51.516;4.000;2022-10-16T06:33:27;1.77;;;0.40;;
6259;SDS011;3163;51.516;4.000;2022-10-16T06:35:53;0.70;;;0.60;;
6259;SDS011;3163;51.516;4.000;2022-10-16T06:38:19;2.30;;;0.57;;
6259;SDS011;3163;51.516;4.000;2022-10-16T06:40:45;1.40;;;0.60;;
6259;SDS011;3163;51.516;4.000;2022-10-16T06:43:11;0.57;;;0.57;;
6259;SDS011;3163;51.516;4.000;2022-10-16T06:45:37;2.50;;;0.53;;
6259;SDS011;3163;51.516;4.000;2022-10-16T06:48:03;1.03;;;0.40;;
6259;SDS011;3163;51.516;4.000;2022-10-16T06:50:29;0.67;;;0.30;;
6259;SDS011;3163;51.516;4.000;2022-10-16T06:52:55;1.27;;;0.40;;
6259;SDS011;3163;51.516;4.000;2022-10-16T06:55:21;3.07;;;0.70;;
6259;SDS011;3163;51.516;4.000;2022-10-16T06:57:47;0.20;;;0.20;;
6259;SDS011;3163;51.516;4.000;2022-10-16T07:00:13;2.15;;;0.60;;
6259;SDS011;3163;51.516;4.000;2022-10-16T07:02:39;0.90;;;0.50;;
6259;SDS011;3163;51.516;4.000;2022-10-16T07:05:05;0.90;;;0.50;;
6259;SDS011;3163;51.516;4.000;2022-10-16T07:07:31;1.47;;;0.50;;
6259;SDS011;3163;51.516;4.000;2022-10-16T07:09:57;2.00;;;0.50;;
6259;SDS011;3163;51.516;4.000;2022-10-16T07:12:23;0.63;;;0.47;;
6259;SDS011;3163;51.516;4.000;2022-10-16T07:14:49;0.50;;;0.43;;
6259;SDS011;3163;51.516;4.000;2022-10-16T07:17:17;1.43;;;0.40;;
6259;SDS011;3163;51.516;4.000;2022-10-16T07:19:43;1.57;;;0.67;;
6259;SDS011;3163;51.516;4.000;2022-10-16T07:22:09;0.50;;;0.50;;
6259;SDS011;3163;51.516;4.000;2022-10-16T07:24:35;0.40;;;0.40;;
6259;SDS011;3163;51.516;4.000;2022-10-16T07:27:01;0.30;;;0.30;;
6259;SDS011;3163;51.516;4.000;2022-10-16T07:29:27;0.63;;;0.37;;
6259;SDS011;3163;51.516;4.000;2022-10-16T07:31:53;0.53;;;0.30;;
6259;SDS011;3163;51.516;4.000;2022-10-16T07:34:19;0.57;;;0.43;;
6259;SDS011;3163;51.516;4.000;2022-10-16T07:36:50;0.53;;;0.40;;
6259;SDS011;3163;51.516;4.000;2022-10-16T07:39:16;0.63;;;0.63;;
6259;SDS011;3163;51.516;4.000;2022-10-16T07:41:42;1.80;;;0.50;;
6259;SDS011;3163;51.516;4.000;2022-10-16T07:44:08;2.07;;;0.60;;
6259;SDS011;3163;51.516;4.000;2022-10-16T07:46:34;1.37;;;0.57;;
6259;SDS011;3163;51.516;4.000;2022-10-16T07:49:01;2.45;;;0.60;;
6259;SDS011;3163;51.516;4.000;2022-10-16T07:51:27;2.60;;;0.50;;
6259;SDS011;3163;51.516;4.000;2022-10-16T07:53:53;2.27;;;0.53;;
6259;SDS011;3163;51.516;4.000;2022-10-16T07:56:19;0.80;;;0.50;;
6259;SDS011;3163;51.516;4.000;2022-10-16T07:58:45;1.07;;;0.57;;
6259;SDS011;3163;51.516;4.000;2022-10-16T08:01:12;0.80;;;0.50;;
6259;SDS011;3163;51.516;4.000;2022-10-16T08:03:42;1.60;;;0.50;;
6259;SDS011;3163;51.516;4.000;2022-10-16T08:06:08;0.73;;;0.57;;
6259;SDS011;3163;51.516;4.000;2022-10-16T08:08:34;1.33;;;0.47;;
6259;SDS011;3163;51.516;4.000;2022-10-16T08:11:00;2.43;;;0.60;;
6259;SDS011;3163;51.516;4.000;2022-10-16T08:13:28;0.90;;;0.50;;
6259;SDS011;3163;51.516;4.000;2022-10-16T08:15:54;2.93;;;0.50;;
6259;SDS011;3163;51.516;4.000;2022-10-16T08:18:20;0.40;;;0.40;;
6259;SDS011;3163;51.516;4.000;2022-10-16T08:20:46;0.50;;;0.50;;
6259;SDS011;3163;51.516;4.000;2022-10-16T08:23:14;0.90;;;0.50;;
6259;SDS011;3163;51.516;4.000;2022-10-16T08:25:41;0.93;;;0.50;;
6259;SDS011;3163;51.516;4.000;2022-10-16T08:28:08;0.50;;;0.50;;
6259;SDS011;3163;51.516;4.000;2022-10-16T08:30:35;1.07;;;0.60;;
6259;SDS011;3163;51.516;4.000;2022-10-16T08:33:01;2.13;;;0.63;;
6259;SDS011;3163;51.516;4.000;2022-10-16T08:35:27;1.13;;;0.67;;
6259;SDS011;3163;51.516;4.000;2022-10-16T08:37:53;0.70;;;0.57;;
6259;SDS011;3163;51.516;4.000;2022-10-16T08:40:20;1.10;;;0.52;;
6259;SDS011;3163;51.516;4.000;2022-10-16T08:47:53;2.10;;;0.53;;
6259;SDS011;3163;51.516;4.000;2022-10-16T08:50:27;0.50;;;0.50;;
6259;SDS011;3163;51.516;4.000;2022-10-16T08:52:53;0.70;;;0.57;;
6259;SDS011;3163;51.516;4.000;2022-10-16T08:57:46;1.50;;;0.63;;
6259;SDS011;3163;51.516;4.000;2022-10-16T09:00:12;0.87;;;0.40;;
6259;SDS011;3163;51.516;4.000;2022-10-16T09:02:42;0.93;;;0.53;;
6259;SDS011;3163;51.516;4.000;2022-10-16T09:21:21;2.37;;;0.83;;
6259;SDS011;3163;51.516;4.000;2022-10-16T09:23:48;2.77;;;0.83;;
6259;SDS011;3163;51.516;4.000;2022-10-16T09:26:14;0.63;;;0.60;;
6259;SDS011;3163;51.516;4.000;2022-10-16T09:28:42;1.07;;;0.50;;
6259;SDS011;3163;51.516;4.000;2022-10-16T09:31:27;1.33;;;0.68;;
6259;SDS011;3163;51.516;4.000;2022-10-16T09:33:59;1.20;;;0.70;;
6259;SDS011;3163;51.516;4.000;2022-10-16T09:36:29;2.27;;;0.40;;
6259;SDS011;3163;51.516;4.000;2022-10-16T09:39:05;1.57;;;0.50;;
6259;SDS011;3163;51.516;4.000;2022-10-16T09:41:33;1.13;;;0.47;;
6259;SDS011;3163;51.516;4.000;2022-10-16T09:44:00;2.67;;;0.93;;
6259;SDS011;3163;51.516;4.000;2022-10-16T09:46:31;1.50;;;0.90;;
6259;SDS011;3163;51.516;4.000;2022-10-16T09:48:59;2.97;;;0.50;;
6259;SDS011;3163;51.516;4.000;2022-10-16T09:51:26;0.50;;;0.50;;
6259;SDS011;3163;51.516;4.000;2022-10-16T09:53:57;1.20;;;0.60;;
6259;SDS011;3163;51.516;4.000;2022-10-16T09:58:53;1.10;;;0.50;;
6259;SDS011;3163;51.516;4.000;2022-10-16T10:01:20;1.33;;;0.47;;
6259;SDS011;3163;51.516;4.000;2022-10-16T10:03:46;1.43;;;0.60;;
6259;SDS011;3163;51.516;4.000;2022-10-16T10:06:18;2.00;;;0.90;;
6259;SDS011;3163;51.516;4.000;2022-10-16T10:08:56;3.40;;;0.80;;
6259;SDS011;3163;51.516;4.000;2022-10-16T10:14:15;1.77;;;0.70;;
6259;SDS011;3163;51.516;4.000;2022-10-16T10:16:42;0.63;;;0.63;;
6259;SDS011;3163;51.516;4.000;2022-10-16T10:19:15;2.28;;;0.90;;
6259;SDS011;3163;51.516;4.000;2022-10-16T10:21:41;2.40;;;0.40;;
6259;SDS011;3163;51.516;4.000;2022-10-16T10:24:14;1.20;;;0.57;;
6259;SDS011;3163;51.516;4.000;2022-10-16T10:26:54;1.67;;;0.70;;
6259;SDS011;3163;51.516;4.000;2022-10-16T10:29:31;1.23;;;0.70;;
6259;SDS011;3163;51.516;4.000;2022-10-16T10:32:10;4.90;;;0.80;;
6259;SDS011;3163;51.516;4.000;2022-10-16T10:39:51;4.90;;;0.87;;
6259;SDS011;3163;51.516;4.000;2022-10-16T10:42:26;1.83;;;0.67;;
6259;SDS011;3163;51.516;4.000;2022-10-16T10:45:01;2.03;;;0.50;;
6259;SDS011;3163;51.516;4.000;2022-10-16T10:47:40;1.20;;;0.60;;
6259;SDS011;3163;51.516;4.000;2022-10-16T10:50:26;1.80;;;0.70;;
6259;SDS011;3163;51.516;4.000;2022-10-16T11:05:50;1.40;;;0.80;;
6259;SDS011;3163;51.516;4.000;2022-10-16T11:08:22;1.93;;;1.00;;
6259;SDS011;3163;51.516;4.000;2022-10-16T11:10:56;4.03;;;1.00;;
6259;SDS011;3163;51.516;4.000;2022-10-16T11:15:50;0.50;;;0.50;;
6259;SDS011;3163;51.516;4.000;2022-10-16T11:18:22;0.73;;;0.50;;
6259;SDS011;3163;51.516;4.000;2022-10-16T11:20:52;2.23;;;0.60;;
6259;SDS011;3163;51.516;4.000;2022-10-16T11:23:27;0.77;;;0.50;;
6259;SDS011;3163;51.516;4.000;2022-10-16T11:25:56;2.37;;;0.70;;
6259;SDS011;3163;51.516;4.000;2022-10-16T11:28:32;5.00;;;1.00;;
6259;SDS011;3163;51.516;4.000;2022-10-16T11:33:42;3.10;;;0.90;;
6259;SDS011;3163;51.516;4.000;2022-10-16T11:36:15;2.77;;;0.90;;
6259;SDS011;3163;51.516;4.000;2022-10-16T11:38:49;3.57;;;0.90;;
6259;SDS011;3163;51.516;4.000;2022-10-16T11:46:39;2.60;;;0.80;;
6259;SDS011;3163;51.516;4.000;2022-10-16T11:49:15;2.42;;;0.88;;
6259;SDS011;3163;51.516;4.000;2022-10-16T11:52:20;4.57;;;1.03;;
6259;SDS011;3163;51.516;4.000;2022-10-16T11:54:56;0.93;;;0.63;;
6259;SDS011;3163;51.516;4.000;2022-10-16T11:57:31;0.83;;;0.50;;
6259;SDS011;3163;51.516;4.000;2022-10-16T12:02:28;2.47;;;1.00;;
6259;SDS011;3163;51.516;4.000;2022-10-16T12:05:01;5.87;;;0.80;;
6259;SDS011;3163;51.516;4.000;2022-10-16T12:07:32;0.87;;;0.53;;
6259;SDS011;3163;51.516;4.000;2022-10-16T12:10:11;3.60;;;0.50;;
6259;SDS011;3163;51.516;4.000;2022-10-16T12:12:44;2.40;;;0.80;;
6259;SDS011;3163;51.516;4.000;2022-10-16T12:15:25;7.20;;;1.67;;
6259;SDS011;3163;51.516;4.000;2022-10-16T12:17:51;1.13;;;0.70;;
6259;SDS011;3163;51.516;4.000;2022-10-16T12:22:48;0.80;;;0.80;;
6259;SDS011;3163;51.516;4.000;2022-10-16T12:27:57;0.67;;;0.53;;
6259;SDS011;3163;51.516;4.000;2022-10-16T12:30:24;0.63;;;0.40;;
6259;SDS011;3163;51.516;4.000;2022-10-16T12:32:53;3.70;;;0.90;;
6259;SDS011;3163;51.516;4.000;2022-10-16T12:35:26;1.73;;;0.70;;
6259;SDS011;3163;51.516;4.000;2022-10-16T12:37:53;2.40;;;1.07;;
6259;SDS011;3163;51.516;4.000;2022-10-16T12:42:47;3.20;;;0.63;;
6259;SDS011;3163;51.516;4.000;2022-10-16T12:45:27;2.10;;;0.70;;
6259;SDS011;3163;51.516;4.000;2022-10-16T12:47:53;4.67;;;1.00;;
6259;SDS011;3163;51.516;4.000;2022-10-16T12:50:30;1.50;;;0.60;;
6259;SDS011;3163;51.516;4.000;2022-10-16T12:52:57;3.10;;;0.70;;
6259;SDS011;3163;51.516;4.000;2022-10-16T12:55:24;2.87;;;0.70;;
6259;SDS011;3163;51.516;4.000;2022-10-16T13:06:17;1.17;;;0.60;;
6259;SDS011;3163;51.516;4.000;2022-10-16T13:11:25;2.60;;;0.73;;
6259;SDS011;3163;51.516;4.000;2022-10-16T13:18:56;1.03;;;0.73;;
6259;SDS011;3163;51.516;4.000;2022-10-16T13:21:33;1.97;;;0.83;;
6259;SDS011;3163;51.516;4.000;2022-10-16T13:26:52;4.10;;;1.03;;
6259;SDS011;3163;51.516;4.000;2022-10-16T13:29:22;2.30;;;1.07;;
6259;SDS011;3163;51.516;4.000;2022-10-16T13:31:48;2.17;;;0.63;;
6259;SDS011;3163;51.516;4.000;2022-10-16T13:34:15;2.17;;;0.70;;
6259;SDS011;3163;51.516;4.000;2022-10-16T13:36:46;0.93;;;0.70;;
6259;SDS011;3163;51.516;4.000;2022-10-16T13:39:22;1.20;;;0.90;;
6259;SDS011;3163;51.516;4.000;2022-10-16T13:44:24;2.77;;;0.90;;
6259;SDS011;3163;51.516;4.000;2022-10-16T13:47:00;5.83;;;1.17;;
6259;SDS011;3163;51.516;4.000;2022-10-16T13:49:26;2.70;;;0.90;;
6259;SDS011;3163;51.516;4.000;2022-10-16T13:51:55;1.63;;;0.63;;
6259;SDS011;3163;51.516;4.000;2022-10-16T13:54:22;1.80;;;0.70;;
6259;SDS011;3163;51.516;4.000;2022-10-16T13:56:48;1.60;;;0.70;;
6259;SDS011;3163;51.516;4.000;2022-10-16T13:59:24;3.53;;;0.63;;
6259;SDS011;3163;51.516;4.000;2022-10-16T14:01:51;2.03;;;0.60;;
6259;SDS011;3163;51.516;4.000;2022-10-16T14:04:19;2.43;;;0.83;;
6259;SDS011;3163;51.516;4.000;2022-10-16T14:06:45;10.13;;;1.90;;
6259;SDS011;3163;51.516;4.000;2022-10-16T14:09:20;1.17;;;1.03;;
6259;SDS011;3163;51.516;4.000;2022-10-16T14:11:50;2.03;;;1.05;;
6259;SDS011;3163;51.516;4.000;2022-10-16T14:14:18;5.97;;;1.37;;
6259;SDS011;3163;51.516;4.000;2022-10-16T14:16:44;6.80;;;1.80;;
6259;SDS011;3163;51.516;4.000;2022-10-16T14:19:16;4.28;;;1.30;;
6259;SDS011;3163;51.516;4.000;2022-10-16T14:21:43;2.60;;;1.00;;
6259;SDS011;3163;51.516;4.000;2022-10-16T14:24:13;2.60;;;0.93;;
6259;SDS011;3163;51.516;4.000;2022-10-16T14:26:43;1.70;;;0.70;;
6259;SDS011;3163;51.516;4.000;2022-10-16T14:29:13;2.37;;;1.00;;
6259;SDS011;3163;51.516;4.000;2022-10-16T14:31:39;1.97;;;0.90;;
6259;SDS011;3163;51.516;4.000;2022-10-16T14:36:52;1.27;;;0.73;;
6259;SDS011;3163;51.516;4.000;2022-10-16T14:39:19;2.70;;;0.90;;
6259;SDS011;3163;51.516;4.000;2022-10-16T14:41:47;2.60;;;0.90;;
6259;SDS011;3163;51.516;4.000;2022-10-16T14:44:14;4.87;;;0.93;;
6259;SDS011;3163;51.516;4.000;2022-10-16T14:46:41;2.73;;;0.87;;
6259;SDS011;3163;51.516;4.000;2022-10-16T14:51:35;1.47;;;0.73;;
6259;SDS011;3163;51.516;4.000;2022-10-16T14:54:01;2.20;;;0.57;;
6259;SDS011;3163;51.516;4.000;2022-10-16T14:56:31;2.35;;;1.10;;
6259;SDS011;3163;51.516;4.000;2022-10-16T14:58:58;3.03;;;1.33;;
6259;SDS011;3163;51.516;4.000;2022-10-16T15:01:24;3.40;;;1.57;;
6259;SDS011;3163;51.516;4.000;2022-10-16T15:03:50;4.80;;;1.23;;
6259;SDS011;3163;51.516;4.000;2022-10-16T15:06:18;3.03;;;1.20;;
6259;SDS011;3163;51.516;4.000;2022-10-16T15:08:44;3.97;;;0.80;;
6259;SDS011;3163;51.516;4.000;2022-10-16T15:11:12;3.00;;;1.23;;
6259;SDS011;3163;51.516;4.000;2022-10-16T15:13:39;7.47;;;1.90;;
6259;SDS011;3163;51.516;4.000;2022-10-16T15:16:07;1.83;;;0.97;;
6259;SDS011;3163;51.516;4.000;2022-10-16T15:18:34;2.20;;;0.97;;
6259;SDS011;3163;51.516;4.000;2022-10-16T15:21:00;1.67;;;0.87;;
6259;SDS011;3163;51.516;4.000;2022-10-16T15:23:26;6.80;;;1.60;;
6259;SDS011;3163;51.516;4.000;2022-10-16T15:25:54;4.00;;;1.00;;
6259;SDS011;3163;51.516;4.000;2022-10-16T15:28:21;1.47;;;0.73;;
6259;SDS011;3163;51.516;4.000;2022-10-16T15:30:49;8.03;;;1.57;;
6259;SDS011;3163;51.516;4.000;2022-10-16T15:33:16;6.93;;;1.43;;
6259;SDS011;3163;51.516;4.000;2022-10-16T15:35:42;5.65;;;1.55;;
6259;SDS011;3163;51.516;4.000;2022-10-16T15:38:11;5.90;;;1.47;;
6259;SDS011;3163;51.516;4.000;2022-10-16T15:40:38;5.10;;;1.37;;
6259;SDS011;3163;51.516;4.000;2022-10-16T15:43:04;3.57;;;1.33;;
6259;SDS011;3163;51.516;4.000;2022-10-16T15:45:30;8.07;;;1.67;;
6259;SDS011;3163;51.516;4.000;2022-10-16T15:47:56;3.33;;;1.10;;
6259;SDS011;3163;51.516;4.000;2022-10-16T15:50:22;4.20;;;1.20;;
6259;SDS011;3163;51.516;4.000;2022-10-16T15:52:48;3.47;;;1.03;;
6259;SDS011;3163;51.516;4.000;2022-10-16T15:55:15;5.30;;;1.57;;
6259;SDS011;3163;51.516;4.000;2022-10-16T15:57:42;3.43;;;1.50;;
6259;SDS011;3163;51.516;4.000;2022-10-16T16:00:10;1.30;;;0.87;;
6259;SDS011;3163;51.516;4.000;2022-10-16T16:02:37;2.27;;;0.77;;
6259;SDS011;3163;51.516;4.000;2022-10-16T16:05:03;1.07;;;0.77;;
6259;SDS011;3163;51.516;4.000;2022-10-16T16:07:34;7.57;;;1.40;;
6259;SDS011;3163;51.516;4.000;2022-10-16T16:10:01;3.53;;;1.10;;
6259;SDS011;3163;51.516;4.000;2022-10-16T16:12:27;3.83;;;1.40;;
6259;SDS011;3163;51.516;4.000;2022-10-16T16:14:53;2.30;;;0.90;;
6259;SDS011;3163;51.516;4.000;2022-10-16T16:17:19;3.60;;;1.10;;
6259;SDS011;3163;51.516;4.000;2022-10-16T16:19:45;2.63;;;0.70;;
6259;SDS011;3163;51.516;4.000;2022-10-16T16:22:11;5.73;;;1.00;;
6259;SDS011;3163;51.516;4.000;2022-10-16T16:24:37;2.30;;;1.20;;
6259;SDS011;3163;51.516;4.000;2022-10-16T16:27:03;2.13;;;1.20;;
6259;SDS011;3163;51.516;4.000;2022-10-16T16:29:29;1.23;;;0.87;;
6259;SDS011;3163;51.516;4.000;2022-10-16T16:31:56;4.00;;;1.37;;
6259;SDS011;3163;51.516;4.000;2022-10-16T16:34:25;0.70;;;0.70;;
6259;SDS011;3163;51.516;4.000;2022-10-16T16:36:51;1.50;;;1.00;;
6259;SDS011;3163;51.516;4.000;2022-10-16T16:39:17;1.27;;;1.10;;
6259;SDS011;3163;51.516;4.000;2022-10-16T16:41:43;4.30;;;1.10;;
6259;SDS011;3163;51.516;4.000;2022-10-16T16:44:11;2.07;;;1.03;;
6259;SDS011;3163;51.516;4.000;2022-10-16T16:46:37;1.50;;;0.73;;
6259;SDS011;3163;51.516;4.000;2022-10-16T16:49:05;3.13;;;1.13;;
6259;SDS011;3163;51.516;4.000;2022-10-16T16:51:31;1.57;;;0.97;;
6259;SDS011;3163;51.516;4.000;2022-10-16T16:53:57;1.80;;;0.90;;
6259;SDS011;3163;51.516;4.000;2022-10-16T16:56:24;0.97;;;0.90;;
6259;SDS011;3163;51.516;4.000;2022-10-16T16:58:51;2.83;;;0.80;;
6259;SDS011;3163;51.516;4.000;2022-10-16T17:01:18;1.40;;;1.07;;
6259;SDS011;3163;51.516;4.000;2022-10-16T17:03:44;0.83;;;0.80;;
6259;SDS011;3163;51.516;4.000;2022-10-16T17:06:10;2.03;;;0.93;;